Time;durP1;ratioP1;P1;durP2;ratioP2;P2;SDS_P1;SDS_P2;PMS_P1;PMS_P2;Temp;Humidity;BMP_temperature;BMP_pressure;BME280_temperature;BME280_humidity;BME280_pressure;Samples;Min_cycle;Max_cycle;Signal;HPM_P1;HPM_P2
2023/12/13 00:01:48;;;;;;;;;1.33;0.00;;;;;;;;5098386;27;45266;-76
2023/12/13 00:04:13;;;;;;;;;0.00;0.00;;;;;;;;5097657;27;45438;-76
2023/12/13 00:06:39;;;;;;;;;0.00;0.00;;;;;;;;5098051;27;45513;-75
2023/12/13 00:09:08;;;;;;;;;0.00;0.00;;;;;;;;5097037;27;45253;-76
2023/12/13 00:11:33;;;;;;;;;0.00;0.00;;;;;;;;5098460;27;45649;-76
2023/12/13 00:13:58;;;;;;;;;1.00;0.00;;;;;;;;5096183;27;47058;-76
2023/12/13 00:16:24;;;;;;;;;0.00;0.00;;;;;;;;5097620;27;45643;-76
2023/12/13 00:18:49;;;;;;;;;0.00;0.00;;;;;;;;5098023;27;45479;-75
2023/12/13 00:21:17;;;;;;;;;0.33;0.00;;;;;;;;5097812;27;45514;-76
2023/12/13 00:23:42;;;;;;;;;0.00;0.00;;;;;;;;5097706;27;46151;-75
2023/12/13 00:26:15;;;;;;;;;0.00;0.00;;;;;;;;5097877;27;45298;-76
2023/12/13 00:28:40;;;;;;;;;0.00;0.00;;;;;;;;5095624;27;45436;-75
2023/12/13 00:31:05;;;;;;;;;1.00;0.00;;;;;;;;5097913;27;45366;-76
2023/12/13 00:33:32;;;;;;;;;0.00;0.00;;;;;;;;5097284;27;45781;-76
2023/12/13 00:35:58;;;;;;;;;0.00;0.00;;;;;;;;5097554;27;45963;-75
2023/12/13 00:38:23;;;;;;;;;0.00;0.00;;;;;;;;5097568;27;45841;-76
2023/12/13 00:40:49;;;;;;;;;0.00;0.00;;;;;;;;5097480;27;45528;-76
2023/12/13 00:43:14;;;;;;;;;1.33;0.00;;;;;;;;5097253;27;45284;-76
2023/12/13 00:45:40;;;;;;;;;0.00;0.00;;;;;;;;5097393;27;45337;-75
2023/12/13 00:48:05;;;;;;;;;0.00;0.00;;;;;;;;5097580;27;45472;-75
2023/12/13 00:50:30;;;;;;;;;0.00;0.00;;;;;;;;5097546;27;45317;-76
2023/12/13 00:52:56;;;;;;;;;0.00;0.00;;;;;;;;5097006;27;47517;-76
2023/12/13 00:55:21;;;;;;;;;0.00;0.00;;;;;;;;5097146;27;45518;-75
2023/12/13 00:57:46;;;;;;;;;0.00;0.00;;;;;;;;5097322;27;45447;-75
2023/12/13 01:00:13;;;;;;;;;0.00;0.00;;;;;;;;5097270;27;45733;-76
2023/12/13 01:02:38;;;;;;;;;0.00;0.00;;;;;;;;5095615;27;47247;-74
2023/12/13 01:05:04;;;;;;;;;0.00;0.00;;;;;;;;5097071;27;45472;-75
2023/12/13 01:07:29;;;;;;;;;0.00;0.00;;;;;;;;5097208;27;45440;-76
2023/12/13 01:09:54;;;;;;;;;1.00;0.00;;;;;;;;5097281;27;45471;-76
2023/12/13 01:12:20;;;;;;;;;0.00;0.00;;;;;;;;5095446;27;45538;-76
2023/12/13 01:14:45;;;;;;;;;0.00;0.00;;;;;;;;5096855;27;45568;-76
2023/12/13 01:17:12;;;;;;;;;0.00;0.00;;;;;;;;5096934;27;45855;-76
2023/12/13 01:19:37;;;;;;;;;0.00;0.00;;;;;;;;5095005;27;45259;-76
2023/12/13 01:22:03;;;;;;;;;0.00;0.00;;;;;;;;5096848;27;46116;-75
2023/12/13 01:24:28;;;;;;;;;1.00;0.00;;;;;;;;5096851;27;45396;-76
2023/12/13 01:26:53;;;;;;;;;0.00;0.00;;;;;;;;5097027;27;45288;-73
2023/12/13 01:29:19;;;;;;;;;0.00;0.00;;;;;;;;5097015;27;45283;-73
2023/12/13 01:31:44;;;;;;;;;0.00;0.00;;;;;;;;5096613;27;46163;-76
2023/12/13 01:34:10;;;;;;;;;0.00;0.00;;;;;;;;5096656;27;45466;-75
2023/12/13 01:36:44;;;;;;;;;0.00;0.00;;;;;;;;5097050;27;45486;-75
2023/12/13 01:39:09;;;;;;;;;0.00;0.00;;;;;;;;5096975;27;45318;-74
2023/12/13 01:41:34;;;;;;;;;0.67;0.00;;;;;;;;5096700;27;45419;-74
2023/12/13 01:44:00;;;;;;;;;0.00;0.00;;;;;;;;5096601;27;45270;-76
2023/12/13 01:46:25;;;;;;;;;0.00;0.00;;;;;;;;5096594;27;45460;-75
2023/12/13 01:48:51;;;;;;;;;0.00;0.00;;;;;;;;5096839;27;45289;-75
2023/12/13 01:51:16;;;;;;;;;1.00;0.00;;;;;;;;5096238;27;45537;-75
2023/12/13 01:53:42;;;;;;;;;0.00;0.00;;;;;;;;5095105;27;45821;-75
2023/12/13 01:56:09;;;;;;;;;0.00;0.00;;;;;;;;5096862;27;45443;-75
2023/12/13 01:58:38;;;;;;;;;0.00;0.00;;;;;;;;5096903;27;45540;-73
2023/12/13 02:01:04;;;;;;;;;0.67;0.00;;;;;;;;5096070;27;45572;-76
2023/12/13 02:03:29;;;;;;;;;0.00;0.00;;;;;;;;5096249;27;45504;-75
2023/12/13 02:05:55;;;;;;;;;0.00;0.00;;;;;;;;5096318;27;45377;-75
2023/12/13 02:08:22;;;;;;;;;0.00;0.00;;;;;;;;5096502;27;45468;-76
2023/12/13 02:10:48;;;;;;;;;0.00;0.00;;;;;;;;5096294;27;45417;-75
2023/12/13 02:13:14;;;;;;;;;1.00;0.00;;;;;;;;5096103;27;45318;-75
2023/12/13 02:15:39;;;;;;;;;0.00;0.00;;;;;;;;5096256;27;45546;-73
2023/12/13 02:18:06;;;;;;;;;0.00;0.00;;;;;;;;5098136;27;45301;-75
2023/12/13 02:20:31;;;;;;;;;0.67;0.00;;;;;;;;5099594;27;45554;-76
2023/12/13 02:22:57;;;;;;;;;0.00;0.00;;;;;;;;5099586;27;45344;-75
2023/12/13 02:25:29;;;;;;;;;0.00;0.00;;;;;;;;5099707;27;45401;-76
2023/12/13 02:27:55;;;;;;;;;0.00;0.00;;;;;;;;5099662;27;45539;-72
2023/12/13 02:30:22;;;;;;;;;0.00;0.00;;;;;;;;5099368;27;45870;-76
2023/12/13 02:32:48;;;;;;;;;0.00;0.00;;;;;;;;5099412;27;45436;-76
2023/12/13 02:35:13;;;;;;;;;0.00;0.00;;;;;;;;5099524;27;45585;-76
2023/12/13 02:37:39;;;;;;;;;0.00;0.00;;;;;;;;5099857;27;45856;-74
2023/12/13 02:40:06;;;;;;;;;0.00;0.00;;;;;;;;5099470;27;45869;-75
2023/12/13 02:42:31;;;;;;;;;1.00;0.00;;;;;;;;5099155;27;45356;-75
2023/12/13 02:44:56;;;;;;;;;1.00;0.00;;;;;;;;5099314;27;45391;-76
2023/12/13 02:47:25;;;;;;;;;0.00;0.00;;;;;;;;5099508;27;45240;-75
2023/12/13 02:49:50;;;;;;;;;0.00;0.00;;;;;;;;5098949;27;46030;-76
2023/12/13 02:52:15;;;;;;;;;0.00;0.00;;;;;;;;5098843;27;45381;-75
2023/12/13 02:54:41;;;;;;;;;0.00;0.00;;;;;;;;5098703;27;45259;-75
2023/12/13 02:57:06;;;;;;;;;0.00;0.00;;;;;;;;5097266;27;45483;-76
2023/12/13 02:59:32;;;;;;;;;1.00;0.00;;;;;;;;5098889;27;46073;-75
2023/12/13 03:01:57;;;;;;;;;0.33;0.00;;;;;;;;5095296;27;45422;-75
2023/12/13 03:04:22;;;;;;;;;1.00;0.00;;;;;;;;5098585;27;45437;-75
2023/12/13 03:06:48;;;;;;;;;0.00;0.00;;;;;;;;5098431;27;45425;-75
2023/12/13 03:09:13;;;;;;;;;0.00;0.00;;;;;;;;5098540;27;45877;-76
2023/12/13 03:11:39;;;;;;;;;0.00;0.00;;;;;;;;5098569;27;45870;-73
2023/12/13 03:14:04;;;;;;;;;0.00;0.00;;;;;;;;5098867;27;45510;-75
2023/12/13 03:16:30;;;;;;;;;0.00;0.00;;;;;;;;5095382;27;45369;-75
2023/12/13 03:18:55;;;;;;;;;0.00;0.00;;;;;;;;5098226;27;45242;-76
2023/12/13 03:21:20;;;;;;;;;0.00;0.00;;;;;;;;5098223;27;45414;-77
2023/12/13 03:23:46;;;;;;;;;0.00;0.00;;;;;;;;5098773;27;45428;-76
2023/12/13 03:26:11;;;;;;;;;1.00;0.00;;;;;;;;5098690;27;45471;-76
2023/12/13 03:28:37;;;;;;;;;1.00;0.00;;;;;;;;5098412;27;46040;-75
2023/12/13 03:31:06;;;;;;;;;0.00;0.00;;;;;;;;5098418;27;45305;-76
2023/12/13 03:33:31;;;;;;;;;0.33;0.33;;;;;;;;5098741;27;45542;-76
2023/12/13 03:35:57;;;;;;;;;0.00;0.00;;;;;;;;5098610;27;45492;-75
2023/12/13 03:38:22;;;;;;;;;2.00;0.00;;;;;;;;5098256;27;45624;-76
2023/12/13 03:40:47;;;;;;;;;0.00;0.00;;;;;;;;5098340;27;45329;-75
2023/12/13 03:43:13;;;;;;;;;0.67;0.00;;;;;;;;5098448;27;45393;-76
2023/12/13 03:45:38;;;;;;;;;0.00;0.00;;;;;;;;5099085;27;45676;-74
2023/12/13 03:48:04;;;;;;;;;0.00;0.00;;;;;;;;5098432;27;45460;-75
2023/12/13 03:50:29;;;;;;;;;0.67;0.00;;;;;;;;5096968;27;45418;-73
2023/12/13 03:52:54;;;;;;;;;1.67;1.00;;;;;;;;5098168;27;45218;-74
2023/12/13 03:55:20;;;;;;;;;1.00;0.00;;;;;;;;5098322;27;45330;-75
2023/12/13 03:57:45;;;;;;;;;0.00;0.00;;;;;;;;5097854;27;45394;-74
2023/12/13 04:00:11;;;;;;;;;0.00;0.00;;;;;;;;5097828;27;45382;-73
2023/12/13 04:02:36;;;;;;;;;0.00;0.00;;;;;;;;5098261;27;45360;-76
2023/12/13 04:05:02;;;;;;;;;1.33;0.00;;;;;;;;5098118;27;45581;-75
2023/12/13 04:07:27;;;;;;;;;1.00;0.00;;;;;;;;5097649;27;45992;-74
2023/12/13 04:09:53;;;;;;;;;0.00;0.00;;;;;;;;5097797;27;45470;-76
2023/12/13 04:12:18;;;;;;;;;0.00;0.00;;;;;;;;5095146;27;45412;-76
2023/12/13 04:14:44;;;;;;;;;0.33;0.00;;;;;;;;5098214;27;45331;-75
2023/12/13 04:17:09;;;;;;;;;1.67;0.00;;;;;;;;5097740;27;46195;-76
2023/12/13 04:19:34;;;;;;;;;0.00;0.00;;;;;;;;5097919;27;45497;-76
2023/12/13 04:22:00;;;;;;;;;0.00;0.00;;;;;;;;5097891;27;45437;-76
2023/12/13 04:24:25;;;;;;;;;0.00;0.00;;;;;;;;5097765;27;46255;-76
2023/12/13 04:26:51;;;;;;;;;1.00;0.00;;;;;;;;5097312;27;45975;-76
2023/12/13 04:29:16;;;;;;;;;0.33;0.00;;;;;;;;5097253;27;45432;-76
2023/12/13 04:31:42;;;;;;;;;1.00;0.00;;;;;;;;5097507;27;45401;-75
2023/12/13 04:34:07;;;;;;;;;1.00;0.00;;;;;;;;5098145;27;45428;-74
2023/12/13 04:36:33;;;;;;;;;0.00;0.00;;;;;;;;5097321;27;46014;-75
2023/12/13 04:38:58;;;;;;;;;0.00;0.00;;;;;;;;5093404;27;45628;-75
2023/12/13 04:41:24;;;;;;;;;0.00;0.00;;;;;;;;5096850;27;45376;-75
2023/12/13 04:43:49;;;;;;;;;0.00;0.00;;;;;;;;5097596;27;45448;-75
2023/12/13 04:46:15;;;;;;;;;0.00;0.00;;;;;;;;5097176;27;46117;-75
2023/12/13 04:48:40;;;;;;;;;0.00;0.00;;;;;;;;5097393;27;45385;-74
2023/12/13 04:51:05;;;;;;;;;0.33;0.00;;;;;;;;5097601;27;45810;-73
2023/12/13 04:53:31;;;;;;;;;0.00;0.00;;;;;;;;5097596;27;45503;-75
2023/12/13 04:55:56;;;;;;;;;1.00;0.00;;;;;;;;5096827;27;45341;-76
2023/12/13 04:58:22;;;;;;;;;0.33;0.00;;;;;;;;5097275;27;45468;-78
2023/12/13 05:00:48;;;;;;;;;0.00;0.00;;;;;;;;5097279;27;45490;-75
2023/12/13 05:03:14;;;;;;;;;0.00;0.00;;;;;;;;5097370;27;45406;-75
2023/12/13 05:05:39;;;;;;;;;0.00;0.00;;;;;;;;5096998;27;45988;-76
2023/12/13 05:08:09;;;;;;;;;0.67;0.00;;;;;;;;5097246;27;45566;-77
2023/12/13 05:10:35;;;;;;;;;1.00;1.00;;;;;;;;5097325;27;45490;-77
2023/12/13 05:13:00;;;;;;;;;0.00;0.00;;;;;;;;5095817;27;45634;-77
2023/12/13 05:15:25;;;;;;;;;1.00;1.00;;;;;;;;5096818;27;45964;-77
2023/12/13 05:17:51;;;;;;;;;1.00;1.00;;;;;;;;5096930;27;45502;-75
2023/12/13 05:20:16;;;;;;;;;1.00;1.00;;;;;;;;5096968;27;45497;-77
2023/12/13 05:22:42;;;;;;;;;2.00;1.00;;;;;;;;5097214;27;45303;-74
2023/12/13 05:25:08;;;;;;;;;3.00;2.00;;;;;;;;5097132;27;45479;-77
2023/12/13 05:27:33;;;;;;;;;1.00;0.33;;;;;;;;5096812;27;45345;-76
2023/12/13 05:29:59;;;;;;;;;1.00;1.00;;;;;;;;5094114;27;45479;-77
2023/12/13 05:32:24;;;;;;;;;1.00;0.00;;;;;;;;5097045;27;45331;-76
2023/12/13 05:34:50;;;;;;;;;0.33;0.00;;;;;;;;5096597;27;45258;-77
2023/12/13 05:37:15;;;;;;;;;0.00;0.00;;;;;;;;5096638;27;45293;-77
2023/12/13 05:39:40;;;;;;;;;0.00;0.00;;;;;;;;5096906;27;46190;-77
2023/12/13 05:42:06;;;;;;;;;1.67;1.00;;;;;;;;5097274;27;45392;-76
2023/12/13 05:44:31;;;;;;;;;0.00;0.00;;;;;;;;5096351;27;45374;-77
2023/12/13 05:46:57;;;;;;;;;0.00;0.00;;;;;;;;5096264;27;45495;-74
2023/12/13 05:49:22;;;;;;;;;0.00;0.00;;;;;;;;5096773;27;45455;-77
2023/12/13 05:51:47;;;;;;;;;0.00;0.00;;;;;;;;5096857;27;45397;-74
2023/12/13 05:54:13;;;;;;;;;0.00;0.00;;;;;;;;5099327;27;45412;-76
2023/12/13 05:56:38;;;;;;;;;0.00;0.00;;;;;;;;5100238;27;45440;-77
2023/12/13 05:59:04;;;;;;;;;0.00;0.00;;;;;;;;5100498;27;45802;-77
2023/12/13 06:01:30;;;;;;;;;0.00;0.00;;;;;;;;5100269;27;45433;-77
2023/12/13 06:03:55;;;;;;;;;0.00;0.00;;;;;;;;5099523;27;45461;-77
2023/12/13 06:06:21;;;;;;;;;0.00;0.00;;;;;;;;5099771;27;45500;-77
2023/12/13 06:08:46;;;;;;;;;0.00;0.00;;;;;;;;5099819;27;45329;-76
2023/12/13 06:11:11;;;;;;;;;0.00;0.00;;;;;;;;5099815;27;45242;-77
2023/12/13 06:13:37;;;;;;;;;0.00;0.00;;;;;;;;5098830;27;45392;-74
2023/12/13 06:16:02;;;;;;;;;0.00;0.00;;;;;;;;5099211;27;45417;-77
2023/12/13 06:18:28;;;;;;;;;0.00;0.00;;;;;;;;5099477;27;45484;-76
2023/12/13 06:20:53;;;;;;;;;0.00;0.00;;;;;;;;5097129;27;45370;-76
2023/12/13 06:23:18;;;;;;;;;1.67;1.67;;;;;;;;5099330;27;46008;-77
2023/12/13 06:25:44;;;;;;;;;2.33;2.33;;;;;;;;5099445;27;45371;-77
2023/12/13 06:28:10;;;;;;;;;1.00;0.00;;;;;;;;5099607;27;45483;-74
2023/12/13 06:30:36;;;;;;;;;1.67;0.67;;;;;;;;5100057;27;45368;-75
2023/12/13 06:33:01;;;;;;;;;0.00;0.00;;;;;;;;5099260;27;45441;-77
2023/12/13 06:35:27;;;;;;;;;1.00;0.00;;;;;;;;5097929;27;45389;-76
2023/12/13 06:37:52;;;;;;;;;2.00;2.00;;;;;;;;5099377;27;45305;-76
2023/12/13 06:40:18;;;;;;;;;0.00;0.00;;;;;;;;5099584;27;45413;-76
2023/12/13 06:42:43;;;;;;;;;1.67;0.00;;;;;;;;5099030;27;45426;-76
2023/12/13 06:45:10;;;;;;;;;0.00;0.00;;;;;;;;5099468;27;45459;-76
2023/12/13 06:47:35;;;;;;;;;1.00;0.33;;;;;;;;5099679;27;45357;-75
2023/12/13 06:50:00;;;;;;;;;1.00;0.00;;;;;;;;5099308;27;45463;-76
2023/12/13 06:52:26;;;;;;;;;1.00;1.00;;;;;;;;5098856;27;45943;-76
2023/12/13 06:54:51;;;;;;;;;0.00;0.00;;;;;;;;5098864;27;45348;-76
2023/12/13 06:57:17;;;;;;;;;0.00;0.00;;;;;;;;5099188;27;45382;-77
2023/12/13 06:59:42;;;;;;;;;3.00;2.00;;;;;;;;5099199;27;45404;-76
2023/12/13 07:02:08;;;;;;;;;1.00;1.00;;;;;;;;5098930;27;45490;-76
2023/12/13 07:04:35;;;;;;;;;0.00;0.00;;;;;;;;5098404;27;45466;-75
2023/12/13 07:07:01;;;;;;;;;2.00;1.00;;;;;;;;5099026;27;45495;-75
2023/12/13 07:09:26;;;;;;;;;0.00;0.00;;;;;;;;5098977;27;45368;-75
2023/12/13 07:11:51;;;;;;;;;0.00;0.00;;;;;;;;5098757;27;45448;-77
2023/12/13 07:14:17;;;;;;;;;0.00;0.00;;;;;;;;5098722;27;45433;-77
2023/12/13 07:16:43;;;;;;;;;1.00;0.00;;;;;;;;5098699;27;45728;-74
2023/12/13 07:19:08;;;;;;;;;2.00;2.00;;;;;;;;5099853;27;45472;-75
2023/12/13 07:21:34;;;;;;;;;2.00;2.00;;;;;;;;5099189;27;45321;-77
2023/12/13 07:23:59;;;;;;;;;2.67;2.33;;;;;;;;5098985;27;45474;-74
2023/12/13 07:26:24;;;;;;;;;0.00;0.00;;;;;;;;5099204;27;45496;-74
2023/12/13 07:28:50;;;;;;;;;0.00;0.00;;;;;;;;5099609;27;45312;-74
2023/12/13 07:31:15;;;;;;;;;2.00;2.00;;;;;;;;5099183;27;45313;-74
2023/12/13 07:33:41;;;;;;;;;2.75;2.00;;;;;;;;5099398;27;45266;-73
2023/12/13 07:36:07;;;;;;;;;2.00;2.00;;;;;;;;5099043;27;45286;-80
2023/12/13 07:38:32;;;;;;;;;1.00;1.00;;;;;;;;5099013;27;45514;-75
2023/12/13 07:40:58;;;;;;;;;1.33;1.00;;;;;;;;5098995;27;45603;-78
2023/12/13 07:43:23;;;;;;;;;2.00;2.00;;;;;;;;5099063;27;45210;-78
2023/12/13 07:45:51;;;;;;;;;2.00;1.00;;;;;;;;5099167;27;45374;-78
2023/12/13 07:48:20;;;;;;;;;1.00;0.00;;;;;;;;5099558;27;45549;-73
2023/12/13 07:50:46;;;;;;;;;1.33;0.67;;;;;;;;5098742;27;46285;-74
2023/12/13 07:53:11;;;;;;;;;1.00;0.00;;;;;;;;5099059;27;45474;-74
2023/12/13 07:55:37;;;;;;;;;2.67;2.00;;;;;;;;5098712;27;45459;-74
2023/12/13 07:58:02;;;;;;;;;0.67;0.00;;;;;;;;5098868;27;45470;-74
2023/12/13 08:00:29;;;;;;;;;1.00;1.00;;;;;;;;5098050;27;46022;-78
2023/12/13 08:02:54;;;;;;;;;1.33;1.00;;;;;;;;5098349;27;45582;-77
2023/12/13 08:05:20;;;;;;;;;1.00;1.00;;;;;;;;5098624;27;45433;-77
2023/12/13 08:07:46;;;;;;;;;0.67;0.00;;;;;;;;5098528;27;45556;-74
2023/12/13 08:10:11;;;;;;;;;1.33;1.33;;;;;;;;5098685;27;45462;-74
2023/12/13 08:12:36;;;;;;;;;1.00;1.00;;;;;;;;5098541;27;45330;-73
2023/12/13 08:15:05;;;;;;;;;1.00;1.00;;;;;;;;5097833;27;45518;-74
2023/12/13 08:17:30;;;;;;;;;2.00;2.00;;;;;;;;5098613;27;45367;-74
2023/12/13 08:19:56;;;;;;;;;1.00;1.00;;;;;;;;5096964;27;46415;-74
2023/12/13 08:22:21;;;;;;;;;0.00;0.00;;;;;;;;5098092;27;45206;-74
2023/12/13 08:24:46;;;;;;;;;1.00;0.00;;;;;;;;5098239;27;45536;-74
2023/12/13 08:27:12;;;;;;;;;17.00;14.75;;;;;;;;5098842;27;45464;-75
2023/12/13 08:29:37;;;;;;;;;0.00;0.00;;;;;;;;5098407;27;46200;-76
2023/12/13 08:32:02;;;;;;;;;2.00;1.00;;;;;;;;5098420;27;45462;-74
2023/12/13 08:34:28;;;;;;;;;2.00;1.00;;;;;;;;5098518;27;45558;-76
2023/12/13 08:36:53;;;;;;;;;1.00;0.00;;;;;;;;5098493;27;45493;-74
2023/12/13 08:39:21;;;;;;;;;0.00;0.00;;;;;;;;5098197;27;45511;-76
2023/12/13 08:41:47;;;;;;;;;0.00;0.00;;;;;;;;5098354;27;45417;-74
2023/12/13 08:44:12;;;;;;;;;1.00;1.00;;;;;;;;5098520;27;45361;-74
2023/12/13 08:46:38;;;;;;;;;1.00;0.00;;;;;;;;5098385;27;45209;-76
2023/12/13 08:49:04;;;;;;;;;1.00;1.00;;;;;;;;5098074;27;46003;-74
2023/12/13 08:51:29;;;;;;;;;1.00;0.00;;;;;;;;5097757;27;45444;-75
2023/12/13 08:53:55;;;;;;;;;1.00;0.33;;;;;;;;5097865;27;45466;-76
2023/12/13 08:56:20;;;;;;;;;0.00;0.00;;;;;;;;5098195;27;45330;-74
2023/12/13 08:58:46;;;;;;;;;0.00;0.00;;;;;;;;5098219;27;46077;-76
2023/12/13 09:01:11;;;;;;;;;1.75;1.75;;;;;;;;5076781;27;45404;-76
2023/12/13 09:03:37;;;;;;;;;2.00;1.33;;;;;;;;5097342;27;45677;-73
2023/12/13 09:06:02;;;;;;;;;0.00;0.00;;;;;;;;5097788;27;45452;-74
2023/12/13 09:08:28;;;;;;;;;0.00;0.00;;;;;;;;5097501;27;45773;-74
2023/12/13 09:10:53;;;;;;;;;0.00;0.00;;;;;;;;5079238;27;45530;-72
2023/12/13 09:13:18;;;;;;;;;0.00;0.00;;;;;;;;5097840;27;45587;-73
2023/12/13 09:15:44;;;;;;;;;0.00;0.00;;;;;;;;5098340;27;45247;-73
2023/12/13 09:18:09;;;;;;;;;1.00;1.00;;;;;;;;5097718;27;45845;-73
2023/12/13 09:20:35;;;;;;;;;0.00;0.00;;;;;;;;5075420;27;45287;-80
2023/12/13 09:23:00;;;;;;;;;1.00;1.00;;;;;;;;5057617;28;45416;-74
2023/12/13 09:25:26;;;;;;;;;0.00;0.00;;;;;;;;5057386;27;45434;-74
2023/12/13 09:27:51;;;;;;;;;3.00;1.67;;;;;;;;5078606;27;45657;-74
2023/12/13 09:30:17;;;;;;;;;0.00;0.00;;;;;;;;5078751;27;45477;-74
2023/12/13 09:32:43;;;;;;;;;0.00;0.00;;;;;;;;5050060;28;45455;-72
2023/12/13 09:35:09;;;;;;;;;0.33;0.00;;;;;;;;5058799;28;45588;-72
2023/12/13 09:37:34;;;;;;;;;1.00;0.00;;;;;;;;5058969;28;45407;-72
2023/12/13 09:40:00;;;;;;;;;1.00;0.67;;;;;;;;5058682;28;45390;-75
2023/12/13 09:42:28;;;;;;;;;0.00;0.00;;;;;;;;5058752;28;45468;-74
2023/12/13 09:44:55;;;;;;;;;0.00;0.00;;;;;;;;5057860;28;45502;-74
2023/12/13 09:47:22;;;;;;;;;1.00;1.00;;;;;;;;5058906;28;46098;-74
2023/12/13 09:49:48;;;;;;;;;0.67;0.67;;;;;;;;5058377;28;45414;-73
2023/12/13 09:52:16;;;;;;;;;1.00;1.00;;;;;;;;5059078;28;45414;-73
2023/12/13 09:54:44;;;;;;;;;0.00;0.00;;;;;;;;5058423;28;45424;-74
2023/12/13 09:57:10;;;;;;;;;0.00;0.00;;;;;;;;5058396;28;45572;-74
2023/12/13 09:59:38;;;;;;;;;0.00;0.00;;;;;;;;5057267;28;45514;-80
2023/12/13 10:02:12;;;;;;;;;0.00;0.00;;;;;;;;5058298;28;45402;-72
2023/12/13 10:04:38;;;;;;;;;0.00;0.00;;;;;;;;5058734;28;45302;-70
2023/12/13 10:07:05;;;;;;;;;0.67;0.33;;;;;;;;5058369;28;45516;-72
2023/12/13 10:09:32;;;;;;;;;2.67;2.67;;;;;;;;5058368;28;45490;-70
2023/12/13 10:11:58;;;;;;;;;4.67;4.00;;;;;;;;5058899;28;45357;-71
2023/12/13 10:14:25;;;;;;;;;2.75;2.00;;;;;;;;5057330;28;45477;-71
2023/12/13 10:16:52;;;;;;;;;2.00;2.00;;;;;;;;5058300;28;45416;-77
2023/12/13 10:19:17;;;;;;;;;0.67;0.00;;;;;;;;5058488;28;45319;-77
2023/12/13 10:21:43;;;;;;;;;0.33;0.33;;;;;;;;5058152;28;45473;-76
2023/12/13 10:24:08;;;;;;;;;4.00;4.00;;;;;;;;5058552;28;45355;-72
2023/12/13 10:26:36;;;;;;;;;2.00;1.00;;;;;;;;5058144;28;46137;-75
2023/12/13 10:29:03;;;;;;;;;2.33;2.00;;;;;;;;5056470;28;45551;-73
2023/12/13 10:31:30;;;;;;;;;2.50;2.50;;;;;;;;5057812;28;45517;-74
2023/12/13 10:33:56;;;;;;;;;1.00;0.00;;;;;;;;5057681;28;45450;-76
2023/12/13 10:36:22;;;;;;;;;6.00;4.67;;;;;;;;5056688;28;45370;-77
2023/12/13 10:38:52;;;;;;;;;1.00;1.00;;;;;;;;5057311;28;45491;-76
2023/12/13 10:41:19;;;;;;;;;1.00;0.00;;;;;;;;5057681;28;45492;-81
2023/12/13 10:43:45;;;;;;;;;5.33;3.67;;;;;;;;5057000;28;45250;-71
2023/12/13 10:46:12;;;;;;;;;1.00;1.00;;;;;;;;5057429;28;45464;-72
2023/12/13 10:48:37;;;;;;;;;4.00;3.00;;;;;;;;5056306;28;45521;-73
2023/12/13 10:51:04;;;;;;;;;0.33;0.33;;;;;;;;5057289;28;45549;-72
2023/12/13 10:53:34;;;;;;;;;0.00;0.00;;;;;;;;5068017;28;45539;-72
2023/12/13 10:56:00;;;;;;;;;3.00;2.67;;;;;;;;5076488;28;45526;-71
2023/12/13 10:58:26;;;;;;;;;2.75;2.75;;;;;;;;5076059;27;45476;-83
2023/12/13 11:00:52;;;;;;;;;0.67;0.33;;;;;;;;5077593;28;45533;-84
2023/12/13 11:03:32;;;;;;;;;0.00;0.00;;;;;;;;5077030;28;45424;-78
2023/12/13 11:06:02;;;;;;;;;0.33;0.33;;;;;;;;5077623;28;46079;-73
2023/12/13 11:08:36;;;;;;;;;2.00;1.00;;;;;;;;5076130;28;45521;-73
2023/12/13 11:11:09;;;;;;;;;0.00;0.00;;;;;;;;5077350;28;45312;-80
2023/12/13 11:13:39;;;;;;;;;0.00;0.00;;;;;;;;5075123;28;45296;-73
2023/12/13 11:16:16;;;;;;;;;15.75;12.50;;;;;;;;5076392;28;45526;-73
2023/12/13 11:18:43;;;;;;;;;3.00;2.50;;;;;;;;5075622;28;45483;-72
2023/12/13 11:21:08;;;;;;;;;4.00;4.00;;;;;;;;5077691;28;45468;-78
2023/12/13 11:23:37;;;;;;;;;4.00;3.25;;;;;;;;5077151;28;45325;-77
2023/12/13 11:26:12;;;;;;;;;3.00;2.00;;;;;;;;5078247;28;45489;-77
2023/12/13 11:28:37;;;;;;;;;2.33;2.00;;;;;;;;5078632;28;45428;-77
2023/12/13 11:31:08;;;;;;;;;3.00;3.00;;;;;;;;5078840;28;45434;-77
2023/12/13 11:33:37;;;;;;;;;0.67;0.00;;;;;;;;5079184;28;45326;-77
2023/12/13 11:36:09;;;;;;;;;0.33;0.00;;;;;;;;5078353;28;46205;-77
2023/12/13 11:38:34;;;;;;;;;0.00;0.00;;;;;;;;5078645;28;45383;-78
2023/12/13 11:41:00;;;;;;;;;0.00;0.00;;;;;;;;5078845;28;45495;-77
2023/12/13 11:43:25;;;;;;;;;0.00;0.00;;;;;;;;5079012;28;45398;-77
2023/12/13 11:45:51;;;;;;;;;1.67;1.67;;;;;;;;5078663;28;45548;-77
2023/12/13 11:48:16;;;;;;;;;0.00;0.00;;;;;;;;5078994;28;45263;-77
2023/12/13 11:50:41;;;;;;;;;3.00;3.00;;;;;;;;5078660;28;45396;-77
2023/12/13 11:53:10;;;;;;;;;2.00;1.00;;;;;;;;5078648;28;45421;-77
2023/12/13 11:55:36;;;;;;;;;2.00;1.00;;;;;;;;5078233;28;46445;-77
2023/12/13 11:58:03;;;;;;;;;2.00;1.67;;;;;;;;5078338;28;45471;-77
2023/12/13 12:00:28;;;;;;;;;1.00;0.00;;;;;;;;5078533;28;45254;-77
2023/12/13 12:02:54;;;;;;;;;0.00;0.00;;;;;;;;5078567;28;45416;-77
2023/12/13 12:05:21;;;;;;;;;2.67;1.00;;;;;;;;5078614;28;45544;-77
2023/12/13 12:07:54;;;;;;;;;3.00;2.00;;;;;;;;5078303;28;45335;-77
2023/12/13 12:10:20;;;;;;;;;1.00;1.00;;;;;;;;5078721;28;45314;-77
2023/12/13 12:12:48;;;;;;;;;0.33;0.33;;;;;;;;5078377;28;45337;-77
2023/12/13 12:15:15;;;;;;;;;0.33;0.33;;;;;;;;5078195;28;45282;-78
2023/12/13 12:17:41;;;;;;;;;0.00;0.00;;;;;;;;5078060;28;45302;-77
2023/12/13 12:20:07;;;;;;;;;0.00;0.00;;;;;;;;5078065;28;45366;-77
2023/12/13 12:22:35;;;;;;;;;0.00;0.00;;;;;;;;5078284;28;45684;-77
2023/12/13 12:25:01;;;;;;;;;0.00;0.00;;;;;;;;5077998;28;45490;-77
2023/12/13 12:27:26;;;;;;;;;0.00;0.00;;;;;;;;5077915;28;45523;-78
2023/12/13 12:29:52;;;;;;;;;0.00;0.00;;;;;;;;5078415;28;45266;-78
2023/12/13 12:32:18;;;;;;;;;2.00;2.00;;;;;;;;5078119;28;45382;-77
2023/12/13 12:34:47;;;;;;;;;2.33;2.00;;;;;;;;5077791;28;45334;-77
2023/12/13 12:37:13;;;;;;;;;2.00;2.00;;;;;;;;5077956;28;45482;-77
2023/12/13 12:39:38;;;;;;;;;2.00;1.00;;;;;;;;5077775;28;45299;-77
2023/12/13 12:42:04;;;;;;;;;1.00;0.67;;;;;;;;5078104;28;45229;-77
2023/12/13 12:44:30;;;;;;;;;6.00;4.33;;;;;;;;5077586;28;46015;-77
2023/12/13 12:46:55;;;;;;;;;1.67;1.67;;;;;;;;5077855;28;45410;-77
2023/12/13 12:49:21;;;;;;;;;2.00;1.00;;;;;;;;5078169;28;45265;-77
2023/12/13 12:51:46;;;;;;;;;2.33;1.33;;;;;;;;5078035;28;45546;-77
2023/12/13 12:54:11;;;;;;;;;1.33;0.00;;;;;;;;5077507;28;46015;-77
2023/12/13 12:56:37;;;;;;;;;0.00;0.00;;;;;;;;5077511;28;45482;-77
2023/12/13 12:59:03;;;;;;;;;0.00;0.00;;;;;;;;5077760;28;45486;-77
2023/12/13 13:01:29;;;;;;;;;3.00;2.00;;;;;;;;5077074;28;45396;-77
2023/12/13 13:03:54;;;;;;;;;1.67;1.00;;;;;;;;5077546;28;45304;-77
2023/12/13 13:06:20;;;;;;;;;2.00;1.67;;;;;;;;5077710;28;45398;-77
2023/12/13 13:08:45;;;;;;;;;1.00;1.00;;;;;;;;5077809;28;45293;-77
2023/12/13 13:11:11;;;;;;;;;2.00;1.33;;;;;;;;5077457;28;45387;-77
2023/12/13 13:13:37;;;;;;;;;3.00;2.00;;;;;;;;5077190;28;46178;-77
2023/12/13 13:16:02;;;;;;;;;1.33;1.00;;;;;;;;5077184;28;45390;-77
2023/12/13 13:18:28;;;;;;;;;6.67;5.33;;;;;;;;5076029;28;45494;-78
2023/12/13 13:20:55;;;;;;;;;2.00;1.00;;;;;;;;5077961;28;45157;-77
2023/12/13 13:23:20;;;;;;;;;3.00;2.00;;;;;;;;5077308;28;45669;-77
2023/12/13 13:25:45;;;;;;;;;4.00;4.00;;;;;;;;5077063;28;45214;-77
2023/12/13 13:28:11;;;;;;;;;10.75;7.00;;;;;;;;5077143;28;45460;-77
2023/12/13 13:30:37;;;;;;;;;2.67;2.00;;;;;;;;5077240;28;45438;-77
2023/12/13 13:33:02;;;;;;;;;3.00;2.00;;;;;;;;5076736;28;46295;-77
2023/12/13 13:35:28;;;;;;;;;1.00;0.00;;;;;;;;5076912;28;45487;-77
2023/12/13 13:37:53;;;;;;;;;2.00;2.00;;;;;;;;5077464;28;45248;-77
2023/12/13 13:40:18;;;;;;;;;3.00;2.00;;;;;;;;5077400;28;45522;-77
2023/12/13 13:42:44;;;;;;;;;1.00;1.00;;;;;;;;5076943;28;46582;-77
2023/12/13 13:45:10;;;;;;;;;2.00;2.00;;;;;;;;5076870;28;45503;-77
2023/12/13 13:47:35;;;;;;;;;1.33;0.67;;;;;;;;5077001;28;45492;-77
2023/12/13 13:50:03;;;;;;;;;3.00;3.00;;;;;;;;5076967;28;45440;-77
2023/12/13 13:52:28;;;;;;;;;6.33;5.33;;;;;;;;5076432;28;45576;-77
2023/12/13 13:54:53;;;;;;;;;1.00;0.67;;;;;;;;5077017;28;45483;-77
2023/12/13 13:57:19;;;;;;;;;5.00;3.67;;;;;;;;5077106;27;45671;-76
2023/12/13 13:59:44;;;;;;;;;1.00;1.00;;;;;;;;5096649;27;45301;-77
2023/12/13 14:02:14;;;;;;;;;0.00;0.00;;;;;;;;5096230;27;45629;-76
2023/12/13 14:04:39;;;;;;;;;2.00;1.00;;;;;;;;5096674;27;45371;-79
2023/12/13 14:07:05;;;;;;;;;1.00;1.00;;;;;;;;5096596;27;45604;-76
2023/12/13 14:09:32;;;;;;;;;0.33;0.00;;;;;;;;5096550;27;45353;-76
2023/12/13 14:11:58;;;;;;;;;0.33;0.00;;;;;;;;5096326;27;46072;-76
2023/12/13 14:14:24;;;;;;;;;0.00;0.00;;;;;;;;5098196;27;45417;-78
2023/12/13 14:16:49;;;;;;;;;0.00;0.00;;;;;;;;5099268;27;45439;-79
2023/12/13 14:19:15;;;;;;;;;2.00;0.00;;;;;;;;5099861;27;45413;-80
2023/12/13 14:21:40;;;;;;;;;0.00;0.00;;;;;;;;5099650;27;46197;-74
2023/12/13 14:24:06;;;;;;;;;0.67;0.67;;;;;;;;5099528;27;45763;-76
2023/12/13 14:26:31;;;;;;;;;1.00;1.00;;;;;;;;5099334;27;45869;-76
2023/12/13 14:28:56;;;;;;;;;1.00;1.00;;;;;;;;5099714;27;45387;-77
2023/12/13 14:31:23;;;;;;;;;0.33;0.00;;;;;;;;5098594;27;46121;-77
2023/12/13 14:33:49;;;;;;;;;3.00;1.00;;;;;;;;5099318;27;45341;-77
2023/12/13 14:36:15;;;;;;;;;0.00;0.00;;;;;;;;5098945;27;46189;-76